sensor_id;sensor_type;location;lat;lon;timestamp;P1;durP1;ratioP1;P2;durP2;ratioP2
21281;SDS011;10800;53.096;18.328;2023-03-04T00:00:11;10.73;;;5.10;;
21281;SDS011;10800;53.096;18.328;2023-03-04T00:05:18;8.73;;;4.50;;
21281;SDS011;10800;53.096;18.328;2023-03-04T00:10:23;13.87;;;5.67;;
21281;SDS011;10800;53.096;18.328;2023-03-04T00:15:29;7.50;;;4.87;;
21281;SDS011;10800;53.096;18.328;2023-03-04T00:20:36;6.93;;;4.00;;
21281;SDS011;10800;53.096;18.328;2023-03-04T00:25:41;8.27;;;3.73;;
21281;SDS011;10800;53.096;18.328;2023-03-04T00:30:46;7.50;;;4.43;;
21281;SDS011;10800;53.096;18.328;2023-03-04T00:35:51;3.23;;;1.77;;
21281;SDS011;10800;53.096;18.328;2023-03-04T00:40:57;5.73;;;2.97;;
21281;SDS011;10800;53.096;18.328;2023-03-04T00:46:04;17.63;;;3.70;;
21281;SDS011;10800;53.096;18.328;2023-03-04T00:51:09;8.33;;;3.67;;
21281;SDS011;10800;53.096;18.328;2023-03-04T00:56:15;3.73;;;3.40;;
21281;SDS011;10800;53.096;18.328;2023-03-04T01:01:20;15.77;;;4.13;;
21281;SDS011;10800;53.096;18.328;2023-03-04T01:06:26;9.50;;;3.53;;
21281;SDS011;10800;53.096;18.328;2023-03-04T01:11:35;10.57;;;4.27;;
21281;SDS011;10800;53.096;18.328;2023-03-04T01:16:41;9.77;;;3.87;;
21281;SDS011;10800;53.096;18.328;2023-03-04T01:21:47;12.00;;;6.40;;
21281;SDS011;10800;53.096;18.328;2023-03-04T01:26:53;11.03;;;3.93;;
21281;SDS011;10800;53.096;18.328;2023-03-04T01:32:01;5.13;;;2.83;;
21281;SDS011;10800;53.096;18.328;2023-03-04T01:37:08;9.13;;;5.37;;
21281;SDS011;10800;53.096;18.328;2023-03-04T01:42:20;16.57;;;5.77;;
21281;SDS011;10800;53.096;18.328;2023-03-04T01:47:23;10.23;;;4.13;;
21281;SDS011;10800;53.096;18.328;2023-03-04T01:52:33;7.23;;;3.93;;
21281;SDS011;10800;53.096;18.328;2023-03-04T01:57:43;10.47;;;4.23;;
21281;SDS011;10800;53.096;18.328;2023-03-04T02:02:53;20.27;;;5.63;;
21281;SDS011;10800;53.096;18.328;2023-03-04T02:08:00;9.60;;;4.77;;
21281;SDS011;10800;53.096;18.328;2023-03-04T02:13:08;10.87;;;5.13;;
21281;SDS011;10800;53.096;18.328;2023-03-04T02:18:18;6.63;;;3.40;;
21281;SDS011;10800;53.096;18.328;2023-03-04T02:23:35;17.73;;;5.57;;
21281;SDS011;10800;53.096;18.328;2023-03-04T02:28:52;11.30;;;4.67;;
21281;SDS011;10800;53.096;18.328;2023-03-04T02:34:03;6.53;;;4.23;;
21281;SDS011;10800;53.096;18.328;2023-03-04T02:39:57;6.77;;;3.97;;
21281;SDS011;10800;53.096;18.328;2023-03-04T02:44:26;9.67;;;4.53;;
21281;SDS011;10800;53.096;18.328;2023-03-04T02:49:33;19.40;;;5.37;;
21281;SDS011;10800;53.096;18.328;2023-03-04T02:54:40;11.20;;;4.63;;
21281;SDS011;10800;53.096;18.328;2023-03-04T02:59:47;11.23;;;4.43;;
21281;SDS011;10800;53.096;18.328;2023-03-04T03:04:52;13.37;;;3.73;;
21281;SDS011;10800;53.096;18.328;2023-03-04T03:09:58;9.27;;;3.77;;
21281;SDS011;10800;53.096;18.328;2023-03-04T03:15:07;11.33;;;3.33;;
21281;SDS011;10800;53.096;18.328;2023-03-04T03:20:14;19.97;;;4.63;;
21281;SDS011;10800;53.096;18.328;2023-03-04T03:25:20;11.17;;;4.20;;
21281;SDS011;10800;53.096;18.328;2023-03-04T03:30:26;4.43;;;3.13;;
21281;SDS011;10800;53.096;18.328;2023-03-04T03:35:32;14.50;;;4.63;;
21281;SDS011;10800;53.096;18.328;2023-03-04T03:40:37;13.33;;;3.43;;
21281;SDS011;10800;53.096;18.328;2023-03-04T03:45:43;4.63;;;3.27;;
21281;SDS011;10800;53.096;18.328;2023-03-04T03:50:49;9.17;;;3.50;;
21281;SDS011;10800;53.096;18.328;2023-03-04T03:55:58;6.33;;;3.27;;
21281;SDS011;10800;53.096;18.328;2023-03-04T04:01:03;5.60;;;2.93;;
21281;SDS011;10800;53.096;18.328;2023-03-04T04:06:10;5.40;;;3.10;;
21281;SDS011;10800;53.096;18.328;2023-03-04T04:11:16;8.90;;;2.63;;
21281;SDS011;10800;53.096;18.328;2023-03-04T04:16:21;4.27;;;2.93;;
21281;SDS011;10800;53.096;18.328;2023-03-04T04:21:29;6.17;;;3.20;;
21281;SDS011;10800;53.096;18.328;2023-03-04T04:26:34;7.77;;;2.70;;
21281;SDS011;10800;53.096;18.328;2023-03-04T04:31:41;6.93;;;3.20;;
21281;SDS011;10800;53.096;18.328;2023-03-04T04:36:49;12.67;;;3.07;;
21281;SDS011;10800;53.096;18.328;2023-03-04T04:41:54;4.23;;;2.77;;
21281;SDS011;10800;53.096;18.328;2023-03-04T04:47:01;6.13;;;2.93;;
21281;SDS011;10800;53.096;18.328;2023-03-04T04:52:06;11.50;;;2.80;;
21281;SDS011;10800;53.096;18.328;2023-03-04T04:57:13;5.27;;;2.93;;
21281;SDS011;10800;53.096;18.328;2023-03-04T05:02:22;5.20;;;2.73;;
21281;SDS011;10800;53.096;18.328;2023-03-04T05:07:27;4.20;;;2.37;;
21281;SDS011;10800;53.096;18.328;2023-03-04T05:12:35;3.90;;;2.67;;
21281;SDS011;10800;53.096;18.328;2023-03-04T05:17:44;6.63;;;2.17;;
21281;SDS011;10800;53.096;18.328;2023-03-04T05:22:51;2.40;;;2.20;;
21281;SDS011;10800;53.096;18.328;2023-03-04T05:27:56;3.90;;;2.23;;
21281;SDS011;10800;53.096;18.328;2023-03-04T05:33:03;10.67;;;2.53;;
21281;SDS011;10800;53.096;18.328;2023-03-04T05:38:12;3.87;;;1.73;;
21281;SDS011;10800;53.096;18.328;2023-03-04T05:43:19;4.13;;;1.73;;
21281;SDS011;10800;53.096;18.328;2023-03-04T05:48:26;4.40;;;2.13;;
21281;SDS011;10800;53.096;18.328;2023-03-04T05:53:34;16.57;;;2.07;;
21281;SDS011;10800;53.096;18.328;2023-03-04T05:58:40;9.87;;;2.67;;
21281;SDS011;10800;53.096;18.328;2023-03-04T06:03:46;5.93;;;1.83;;
21281;SDS011;10800;53.096;18.328;2023-03-04T06:08:52;1.47;;;1.37;;
21281;SDS011;10800;53.096;18.328;2023-03-04T06:13:57;9.90;;;2.53;;
21281;SDS011;10800;53.096;18.328;2023-03-04T06:19:02;6.80;;;2.70;;
21281;SDS011;10800;53.096;18.328;2023-03-04T06:24:07;5.47;;;1.53;;
21281;SDS011;10800;53.096;18.328;2023-03-04T06:29:13;4.30;;;1.73;;
21281;SDS011;10800;53.096;18.328;2023-03-04T06:34:19;7.70;;;2.00;;
21281;SDS011;10800;53.096;18.328;2023-03-04T06:39:24;3.80;;;2.17;;
21281;SDS011;10800;53.096;18.328;2023-03-04T06:44:29;9.30;;;2.37;;
21281;SDS011;10800;53.096;18.328;2023-03-04T06:49:35;4.93;;;2.60;;
21281;SDS011;10800;53.096;18.328;2023-03-04T06:54:40;2.43;;;1.93;;
21281;SDS011;10800;53.096;18.328;2023-03-04T06:59:45;12.50;;;2.93;;
21281;SDS011;10800;53.096;18.328;2023-03-04T07:04:51;3.47;;;1.90;;
21281;SDS011;10800;53.096;18.328;2023-03-04T07:09:56;4.20;;;2.53;;
21281;SDS011;10800;53.096;18.328;2023-03-04T07:15:01;2.77;;;2.07;;
21281;SDS011;10800;53.096;18.328;2023-03-04T07:20:08;9.53;;;3.03;;
21281;SDS011;10800;53.096;18.328;2023-03-04T07:25:14;5.97;;;2.17;;
21281;SDS011;10800;53.096;18.328;2023-03-04T07:30:21;4.93;;;2.47;;
21281;SDS011;10800;53.096;18.328;2023-03-04T07:35:26;5.57;;;2.57;;
21281;SDS011;10800;53.096;18.328;2023-03-04T07:40:31;3.53;;;1.77;;
21281;SDS011;10800;53.096;18.328;2023-03-04T07:45:37;6.00;;;1.60;;
21281;SDS011;10800;53.096;18.328;2023-03-04T07:50:44;2.67;;;1.40;;
21281;SDS011;10800;53.096;18.328;2023-03-04T07:55:50;14.67;;;2.30;;
21281;SDS011;10800;53.096;18.328;2023-03-04T08:00:55;2.90;;;1.20;;
21281;SDS011;10800;53.096;18.328;2023-03-04T08:06:03;9.37;;;2.03;;
21281;SDS011;10800;53.096;18.328;2023-03-04T08:11:24;2.90;;;1.70;;
21281;SDS011;10800;53.096;18.328;2023-03-04T08:16:30;2.77;;;1.77;;
21281;SDS011;10800;53.096;18.328;2023-03-04T08:21:35;13.83;;;2.83;;
21281;SDS011;10800;53.096;18.328;2023-03-04T08:26:43;6.03;;;2.23;;
21281;SDS011;10800;53.096;18.328;2023-03-04T08:31:50;4.80;;;2.50;;
21281;SDS011;10800;53.096;18.328;2023-03-04T08:36:58;7.97;;;2.27;;
21281;SDS011;10800;53.096;18.328;2023-03-04T08:42:04;5.13;;;2.23;;
21281;SDS011;10800;53.096;18.328;2023-03-04T08:47:09;6.03;;;1.40;;
21281;SDS011;10800;53.096;18.328;2023-03-04T08:52:14;5.53;;;3.20;;
21281;SDS011;10800;53.096;18.328;2023-03-04T08:57:20;14.17;;;3.13;;
21281;SDS011;10800;53.096;18.328;2023-03-04T09:02:26;6.00;;;3.10;;
21281;SDS011;10800;53.096;18.328;2023-03-04T09:07:31;8.77;;;3.30;;
21281;SDS011;10800;53.096;18.328;2023-03-04T09:12:36;7.60;;;3.23;;
21281;SDS011;10800;53.096;18.328;2023-03-04T09:17:43;4.47;;;2.30;;
21281;SDS011;10800;53.096;18.328;2023-03-04T09:22:50;7.93;;;2.90;;
21281;SDS011;10800;53.096;18.328;2023-03-04T09:27:55;9.07;;;3.37;;
21281;SDS011;10800;53.096;18.328;2023-03-04T09:33:01;8.20;;;2.87;;
21281;SDS011;10800;53.096;18.328;2023-03-04T09:38:06;4.17;;;2.10;;
21281;SDS011;10800;53.096;18.328;2023-03-04T09:43:19;8.07;;;3.30;;
21281;SDS011;10800;53.096;18.328;2023-03-04T09:48:29;12.07;;;4.73;;
21281;SDS011;10800;53.096;18.328;2023-03-04T09:53:39;8.30;;;3.80;;
21281;SDS011;10800;53.096;18.328;2023-03-04T10:04:05;11.57;;;3.57;;
21281;SDS011;10800;53.096;18.328;2023-03-04T10:09:20;11.00;;;4.13;;
21281;SDS011;10800;53.096;18.328;2023-03-04T10:25:04;6.03;;;2.73;;
21281;SDS011;10800;53.096;18.328;2023-03-04T10:30:22;12.10;;;2.47;;
21281;SDS011;10800;53.096;18.328;2023-03-04T10:35:48;5.47;;;1.40;;
21281;SDS011;10800;53.096;18.328;2023-03-04T10:46:03;3.47;;;1.60;;
21281;SDS011;10800;53.096;18.328;2023-03-04T10:51:10;9.83;;;3.00;;
21281;SDS011;10800;53.096;18.328;2023-03-04T11:01:38;10.40;;;3.13;;
21281;SDS011;10800;53.096;18.328;2023-03-04T11:06:43;3.97;;;1.90;;
21281;SDS011;10800;53.096;18.328;2023-03-04T11:11:55;4.93;;;2.73;;
21281;SDS011;10800;53.096;18.328;2023-03-04T11:22:29;1.13;;;0.70;;
21281;SDS011;10800;53.096;18.328;2023-03-04T11:27:37;6.70;;;1.80;;
21281;SDS011;10800;53.096;18.328;2023-03-04T11:32:46;1.47;;;1.07;;
21281;SDS011;10800;53.096;18.328;2023-03-04T11:43:33;4.60;;;1.37;;
21281;SDS011;10800;53.096;18.328;2023-03-04T12:05:47;0.60;;;0.60;;
21281;SDS011;10800;53.096;18.328;2023-03-04T12:11:01;1.60;;;0.70;;
21281;SDS011;10800;53.096;18.328;2023-03-04T12:21:50;4.47;;;2.40;;
21281;SDS011;10800;53.096;18.328;2023-03-04T12:27:00;1.33;;;1.20;;
21281;SDS011;10800;53.096;18.328;2023-03-04T12:32:24;14.53;;;5.97;;
21281;SDS011;10800;53.096;18.328;2023-03-04T12:37:48;1.50;;;1.10;;
21281;SDS011;10800;53.096;18.328;2023-03-04T12:43:06;2.33;;;1.33;;
21281;SDS011;10800;53.096;18.328;2023-03-04T12:59:20;1.73;;;0.90;;
21281;SDS011;10800;53.096;18.328;2023-03-04T13:04:36;2.80;;;1.20;;
21281;SDS011;10800;53.096;18.328;2023-03-04T13:09:47;2.70;;;1.83;;
21281;SDS011;10800;53.096;18.328;2023-03-04T13:25:31;3.37;;;1.10;;
21281;SDS011;10800;53.096;18.328;2023-03-04T13:36:02;9.90;;;3.23;;
21281;SDS011;10800;53.096;18.328;2023-03-04T13:51:33;5.20;;;2.80;;
21281;SDS011;10800;53.096;18.328;2023-03-04T13:56:45;4.03;;;1.87;;
21281;SDS011;10800;53.096;18.328;2023-03-04T14:01:59;3.20;;;0.90;;
21281;SDS011;10800;53.096;18.328;2023-03-04T14:07:20;1.23;;;1.00;;
21281;SDS011;10800;53.096;18.328;2023-03-04T14:12:44;1.47;;;1.10;;
21281;SDS011;10800;53.096;18.328;2023-03-04T14:17:58;2.17;;;1.10;;
21281;SDS011;10800;53.096;18.328;2023-03-04T14:28:28;0.70;;;0.67;;
21281;SDS011;10800;53.096;18.328;2023-03-04T14:33:34;3.63;;;1.63;;
21281;SDS011;10800;53.096;18.328;2023-03-04T14:38:39;7.13;;;3.00;;
21281;SDS011;10800;53.096;18.328;2023-03-04T14:43:54;8.47;;;2.17;;
21281;SDS011;10800;53.096;18.328;2023-03-04T14:48:59;1.93;;;1.43;;
21281;SDS011;10800;53.096;18.328;2023-03-04T14:54:05;3.23;;;1.90;;
21281;SDS011;10800;53.096;18.328;2023-03-04T14:59:10;1.87;;;1.27;;
21281;SDS011;10800;53.096;18.328;2023-03-04T15:04:17;6.20;;;1.57;;
21281;SDS011;10800;53.096;18.328;2023-03-04T15:09:24;3.20;;;1.80;;
21281;SDS011;10800;53.096;18.328;2023-03-04T15:19:59;4.77;;;2.70;;
21281;SDS011;10800;53.096;18.328;2023-03-04T15:25:13;10.23;;;4.73;;
21281;SDS011;10800;53.096;18.328;2023-03-04T15:30:26;12.60;;;5.28;;
21281;SDS011;10800;53.096;18.328;2023-03-04T15:35:36;4.73;;;2.07;;
21281;SDS011;10800;53.096;18.328;2023-03-04T15:40:43;24.90;;;7.63;;
21281;SDS011;10800;53.096;18.328;2023-03-04T15:45:49;10.23;;;5.23;;
21281;SDS011;10800;53.096;18.328;2023-03-04T15:50:57;2.67;;;1.10;;
21281;SDS011;10800;53.096;18.328;2023-03-04T15:56:07;10.77;;;3.07;;
21281;SDS011;10800;53.096;18.328;2023-03-04T16:01:14;4.43;;;1.93;;
21281;SDS011;10800;53.096;18.328;2023-03-04T16:06:20;14.73;;;6.27;;
21281;SDS011;10800;53.096;18.328;2023-03-04T16:11:33;20.47;;;6.33;;
21281;SDS011;10800;53.096;18.328;2023-03-04T16:16:40;10.93;;;2.80;;
21281;SDS011;10800;53.096;18.328;2023-03-04T16:21:48;17.20;;;5.13;;
21281;SDS011;10800;53.096;18.328;2023-03-04T16:26:53;16.57;;;5.60;;
21281;SDS011;10800;53.096;18.328;2023-03-04T16:31:58;10.53;;;2.40;;
21281;SDS011;10800;53.096;18.328;2023-03-04T16:37:11;13.13;;;2.53;;
21281;SDS011;10800;53.096;18.328;2023-03-04T16:42:18;5.90;;;1.77;;
21281;SDS011;10800;53.096;18.328;2023-03-04T16:47:24;16.20;;;4.40;;
21281;SDS011;10800;53.096;18.328;2023-03-04T16:52:36;2.43;;;1.93;;
21281;SDS011;10800;53.096;18.328;2023-03-04T16:57:42;9.60;;;3.90;;
21281;SDS011;10800;53.096;18.328;2023-03-04T17:02:57;11.17;;;3.47;;
21281;SDS011;10800;53.096;18.328;2023-03-04T17:08:04;30.10;;;6.13;;
21281;SDS011;10800;53.096;18.328;2023-03-04T17:13:09;18.60;;;3.90;;
21281;SDS011;10800;53.096;18.328;2023-03-04T17:18:15;24.23;;;5.40;;
21281;SDS011;10800;53.096;18.328;2023-03-04T17:23:20;28.87;;;10.17;;
21281;SDS011;10800;53.096;18.328;2023-03-04T17:28:25;31.03;;;9.90;;
21281;SDS011;10800;53.096;18.328;2023-03-04T17:33:31;57.97;;;18.60;;
21281;SDS011;10800;53.096;18.328;2023-03-04T17:38:36;99.53;;;30.60;;
21281;SDS011;10800;53.096;18.328;2023-03-04T17:43:48;25.50;;;8.73;;
21281;SDS011;10800;53.096;18.328;2023-03-04T17:48:53;54.93;;;14.07;;
21281;SDS011;10800;53.096;18.328;2023-03-04T17:53:59;11.70;;;4.63;;
21281;SDS011;10800;53.096;18.328;2023-03-04T17:59:08;12.20;;;3.87;;
21281;SDS011;10800;53.096;18.328;2023-03-04T18:04:20;11.97;;;2.63;;
21281;SDS011;10800;53.096;18.328;2023-03-04T18:09:25;28.27;;;6.93;;
21281;SDS011;10800;53.096;18.328;2023-03-04T18:14:31;17.53;;;6.53;;
21281;SDS011;10800;53.096;18.328;2023-03-04T18:19:36;23.47;;;7.27;;
21281;SDS011;10800;53.096;18.328;2023-03-04T18:24:42;18.90;;;5.00;;
21281;SDS011;10800;53.096;18.328;2023-03-04T18:29:47;16.57;;;4.60;;
21281;SDS011;10800;53.096;18.328;2023-03-04T18:34:53;17.87;;;4.37;;
21281;SDS011;10800;53.096;18.328;2023-03-04T18:39:58;27.63;;;7.07;;
21281;SDS011;10800;53.096;18.328;2023-03-04T18:45:03;6.00;;;3.07;;
21281;SDS011;10800;53.096;18.328;2023-03-04T18:50:09;13.40;;;3.50;;
21281;SDS011;10800;53.096;18.328;2023-03-04T18:55:16;156.23;;;50.63;;
21281;SDS011;10800;53.096;18.328;2023-03-04T19:00:22;103.03;;;31.60;;
21281;SDS011;10800;53.096;18.328;2023-03-04T19:05:29;41.57;;;11.17;;
21281;SDS011;10800;53.096;18.328;2023-03-04T19:10:36;13.37;;;5.10;;
21281;SDS011;10800;53.096;18.328;2023-03-04T19:15:41;20.60;;;7.97;;
21281;SDS011;10800;53.096;18.328;2023-03-04T19:20:46;35.27;;;10.00;;
21281;SDS011;10800;53.096;18.328;2023-03-04T19:25:51;23.03;;;9.03;;
21281;SDS011;10800;53.096;18.328;2023-03-04T19:30:57;32.03;;;9.30;;
21281;SDS011;10800;53.096;18.328;2023-03-04T19:36:02;37.87;;;7.83;;
21281;SDS011;10800;53.096;18.328;2023-03-04T19:41:09;20.03;;;7.07;;
21281;SDS011;10800;53.096;18.328;2023-03-04T19:46:16;18.40;;;6.77;;
21281;SDS011;10800;53.096;18.328;2023-03-04T19:51:23;16.20;;;5.50;;
21281;SDS011;10800;53.096;18.328;2023-03-04T19:56:29;9.00;;;4.13;;
21281;SDS011;10800;53.096;18.328;2023-03-04T20:01:35;14.67;;;4.17;;
21281;SDS011;10800;53.096;18.328;2023-03-04T20:06:45;11.67;;;5.67;;
21281;SDS011;10800;53.096;18.328;2023-03-04T20:11:52;14.53;;;6.90;;
21281;SDS011;10800;53.096;18.328;2023-03-04T20:17:00;16.03;;;7.27;;
21281;SDS011;10800;53.096;18.328;2023-03-04T20:22:06;21.23;;;6.60;;
21281;SDS011;10800;53.096;18.328;2023-03-04T20:27:12;64.93;;;15.97;;
21281;SDS011;10800;53.096;18.328;2023-03-04T20:32:20;66.07;;;17.30;;
21281;SDS011;10800;53.096;18.328;2023-03-04T20:37:26;44.13;;;11.40;;
21281;SDS011;10800;53.096;18.328;2023-03-04T20:42:33;150.07;;;38.03;;
21281;SDS011;10800;53.096;18.328;2023-03-04T20:47:38;144.43;;;47.33;;
21281;SDS011;10800;53.096;18.328;2023-03-04T20:52:47;151.20;;;36.40;;
21281;SDS011;10800;53.096;18.328;2023-03-04T20:57:53;121.47;;;30.03;;
21281;SDS011;10800;53.096;18.328;2023-03-04T21:02:58;27.43;;;9.57;;
21281;SDS011;10800;53.096;18.328;2023-03-04T21:08:04;12.77;;;4.03;;
21281;SDS011;10800;53.096;18.328;2023-03-04T21:13:09;40.30;;;5.93;;
21281;SDS011;10800;53.096;18.328;2023-03-04T21:18:16;7.13;;;3.63;;
21281;SDS011;10800;53.096;18.328;2023-03-04T21:23:24;5.07;;;2.97;;
21281;SDS011;10800;53.096;18.328;2023-03-04T21:28:30;20.23;;;6.70;;
21281;SDS011;10800;53.096;18.328;2023-03-04T21:33:35;24.43;;;8.33;;
21281;SDS011;10800;53.096;18.328;2023-03-04T21:38:41;42.03;;;11.93;;
21281;SDS011;10800;53.096;18.328;2023-03-04T21:43:47;19.13;;;6.13;;
21281;SDS011;10800;53.096;18.328;2023-03-04T21:48:52;19.67;;;6.33;;
21281;SDS011;10800;53.096;18.328;2023-03-04T21:53:58;9.33;;;5.17;;
21281;SDS011;10800;53.096;18.328;2023-03-04T21:59:04;16.73;;;4.47;;
21281;SDS011;10800;53.096;18.328;2023-03-04T22:04:10;14.70;;;3.37;;
21281;SDS011;10800;53.096;18.328;2023-03-04T22:09:16;3.50;;;2.20;;
21281;SDS011;10800;53.096;18.328;2023-03-04T22:14:21;10.37;;;2.53;;
21281;SDS011;10800;53.096;18.328;2023-03-04T22:19:29;10.00;;;2.47;;
21281;SDS011;10800;53.096;18.328;2023-03-04T22:24:33;3.97;;;2.17;;
21281;SDS011;10800;53.096;18.328;2023-03-04T22:29:39;6.43;;;2.80;;
21281;SDS011;10800;53.096;18.328;2023-03-04T22:34:44;2.57;;;1.43;;
21281;SDS011;10800;53.096;18.328;2023-03-04T22:39:49;4.33;;;2.07;;
21281;SDS011;10800;53.096;18.328;2023-03-04T22:44:54;6.80;;;2.30;;
21281;SDS011;10800;53.096;18.328;2023-03-04T22:50:00;2.63;;;2.17;;
21281;SDS011;10800;53.096;18.328;2023-03-04T22:55:05;5.47;;;3.23;;
21281;SDS011;10800;53.096;18.328;2023-03-04T23:00:20;3.47;;;2.53;;
21281;SDS011;10800;53.096;18.328;2023-03-04T23:05:27;5.23;;;2.70;;
21281;SDS011;10800;53.096;18.328;2023-03-04T23:10:32;2.87;;;1.73;;
21281;SDS011;10800;53.096;18.328;2023-03-04T23:15:38;13.63;;;1.93;;
21281;SDS011;10800;53.096;18.328;2023-03-04T23:20:43;3.80;;;1.90;;
21281;SDS011;10800;53.096;18.328;2023-03-04T23:25:49;2.40;;;2.20;;
21281;SDS011;10800;53.096;18.328;2023-03-04T23:30:54;13.30;;;2.47;;
21281;SDS011;10800;53.096;18.328;2023-03-04T23:35:59;2.23;;;2.03;;
21281;SDS011;10800;53.096;18.328;2023-03-04T23:41:05;1.30;;;1.20;;
21281;SDS011;10800;53.096;18.328;2023-03-04T23:46:10;10.80;;;2.07;;
21281;SDS011;10800;53.096;18.328;2023-03-04T23:51:18;3.80;;;1.37;;
21281;SDS011;10800;53.096;18.328;2023-03-04T23:56:25;7.27;;;1.20;;
